sensor_id;sensor_type;location;lat;lon;timestamp;P1;durP1;ratioP1;P2;durP2;ratioP2
47762;SDS011;33526;42.690;23.322;2023-07-13T00:03:04;15.13;;;6.53;;
47762;SDS011;33526;42.690;23.322;2023-07-13T00:06:19;17.00;;;7.10;;
47762;SDS011;33526;42.690;23.322;2023-07-13T00:15:06;11.77;;;6.55;;
47762;SDS011;33526;42.690;23.322;2023-07-13T00:18:26;19.25;;;7.65;;
47762;SDS011;33526;42.690;23.322;2023-07-13T00:27:33;17.23;;;7.18;;
47762;SDS011;33526;42.690;23.322;2023-07-13T00:32:59;12.93;;;7.43;;
47762;SDS011;33526;42.690;23.322;2023-07-13T00:35:58;13.18;;;7.25;;
47762;SDS011;33526;42.690;23.322;2023-07-13T00:41:06;12.75;;;7.55;;
47762;SDS011;33526;42.690;23.322;2023-07-13T00:49:27;15.30;;;6.10;;
47762;SDS011;33526;42.690;23.322;2023-07-13T00:52:07;15.57;;;7.25;;
47762;SDS011;33526;42.690;23.322;2023-07-13T00:54:46;17.73;;;6.68;;
47762;SDS011;33526;42.690;23.322;2023-07-13T00:57:21;16.25;;;7.20;;
47762;SDS011;33526;42.690;23.322;2023-07-13T01:00:06;16.20;;;6.70;;
47762;SDS011;33526;42.690;23.322;2023-07-13T01:02:53;14.07;;;7.25;;
47762;SDS011;33526;42.690;23.322;2023-07-13T01:05:38;10.82;;;5.68;;
47762;SDS011;33526;42.690;23.322;2023-07-13T01:08:27;13.48;;;6.30;;
47762;SDS011;33526;42.690;23.322;2023-07-13T01:14:00;14.75;;;6.70;;
47762;SDS011;33526;42.690;23.322;2023-07-13T01:16:30;12.20;;;6.22;;
47762;SDS011;33526;42.690;23.322;2023-07-13T01:19:18;13.20;;;7.18;;
47762;SDS011;33526;42.690;23.322;2023-07-13T01:22:22;12.68;;;5.75;;
47762;SDS011;33526;42.690;23.322;2023-07-13T01:25:10;13.55;;;6.55;;
47762;SDS011;33526;42.690;23.322;2023-07-13T01:28:18;9.88;;;5.88;;
47762;SDS011;33526;42.690;23.322;2023-07-13T01:30:47;11.68;;;6.68;;
47762;SDS011;33526;42.690;23.322;2023-07-13T01:35:56;10.27;;;6.70;;
47762;SDS011;33526;42.690;23.322;2023-07-13T01:38:54;10.23;;;6.38;;
47762;SDS011;33526;42.690;23.322;2023-07-13T01:44:19;12.40;;;6.50;;
47762;SDS011;33526;42.690;23.322;2023-07-13T01:46:47;13.48;;;7.63;;
47762;SDS011;33526;42.690;23.322;2023-07-13T01:49:19;11.20;;;7.05;;
47762;SDS011;33526;42.690;23.322;2023-07-13T01:51:55;11.10;;;6.80;;
47762;SDS011;33526;42.690;23.322;2023-07-13T01:54:24;11.82;;;6.45;;
47762;SDS011;33526;42.690;23.322;2023-07-13T01:56:53;9.77;;;6.65;;
47762;SDS011;33526;42.690;23.322;2023-07-13T01:59:23;16.27;;;6.60;;
47762;SDS011;33526;42.690;23.322;2023-07-13T02:01:50;16.70;;;7.60;;
47762;SDS011;33526;42.690;23.322;2023-07-13T02:04:22;10.73;;;6.93;;
47762;SDS011;33526;42.690;23.322;2023-07-13T02:07:22;16.10;;;6.57;;
47762;SDS011;33526;42.690;23.322;2023-07-13T02:12:41;12.65;;;6.82;;
47762;SDS011;33526;42.690;23.322;2023-07-13T02:15:31;12.27;;;6.88;;
47762;SDS011;33526;42.690;23.322;2023-07-13T02:18:05;10.68;;;7.13;;
47762;SDS011;33526;42.690;23.322;2023-07-13T02:20:39;15.85;;;7.18;;
47762;SDS011;33526;42.690;23.322;2023-07-13T02:23:08;14.82;;;7.78;;
47762;SDS011;33526;42.690;23.322;2023-07-13T02:28:41;18.55;;;8.30;;
47762;SDS011;33526;42.690;23.322;2023-07-13T02:33:47;15.52;;;8.95;;
47762;SDS011;33526;42.690;23.322;2023-07-13T02:36:38;13.45;;;8.65;;
47762;SDS011;33526;42.690;23.322;2023-07-13T02:39:41;12.52;;;8.35;;
47762;SDS011;33526;42.690;23.322;2023-07-13T02:42:13;12.40;;;7.82;;
47762;SDS011;33526;42.690;23.322;2023-07-13T02:45:10;12.57;;;8.50;;
47762;SDS011;33526;42.690;23.322;2023-07-13T02:47:55;16.20;;;9.15;;
47762;SDS011;33526;42.690;23.322;2023-07-13T02:50:34;15.73;;;8.48;;
47762;SDS011;33526;42.690;23.322;2023-07-13T02:53:09;13.50;;;8.43;;
47762;SDS011;33526;42.690;23.322;2023-07-13T02:55:42;14.02;;;8.43;;
47762;SDS011;33526;42.690;23.322;2023-07-13T02:58:20;15.15;;;9.73;;
47762;SDS011;33526;42.690;23.322;2023-07-13T03:00:52;11.75;;;8.20;;
47762;SDS011;33526;42.690;23.322;2023-07-13T03:03:22;9.75;;;8.18;;
47762;SDS011;33526;42.690;23.322;2023-07-13T03:06:07;13.80;;;7.57;;
47762;SDS011;33526;42.690;23.322;2023-07-13T03:09:02;14.17;;;8.53;;
47762;SDS011;33526;42.690;23.322;2023-07-13T03:11:34;13.13;;;8.95;;
47762;SDS011;33526;42.690;23.322;2023-07-13T03:17:03;15.32;;;8.85;;
47762;SDS011;33526;42.690;23.322;2023-07-13T03:19:30;16.38;;;8.65;;
47762;SDS011;33526;42.690;23.322;2023-07-13T03:22:01;13.10;;;8.38;;
47762;SDS011;33526;42.690;23.322;2023-07-13T03:27:32;12.02;;;8.60;;
47762;SDS011;33526;42.690;23.322;2023-07-13T03:30:24;9.88;;;7.80;;
47762;SDS011;33526;42.690;23.322;2023-07-13T03:33:14;12.88;;;7.93;;
47762;SDS011;33526;42.690;23.322;2023-07-13T03:35:48;13.02;;;7.28;;
47762;SDS011;33526;42.690;23.322;2023-07-13T03:41:13;12.93;;;8.07;;
47762;SDS011;33526;42.690;23.322;2023-07-13T03:44:11;11.02;;;8.38;;
47762;SDS011;33526;42.690;23.322;2023-07-13T03:46:52;17.98;;;8.60;;
47762;SDS011;33526;42.690;23.322;2023-07-13T03:49:22;11.30;;;8.65;;
47762;SDS011;33526;42.690;23.322;2023-07-13T03:51:53;22.23;;;9.07;;
47762;SDS011;33526;42.690;23.322;2023-07-13T03:54:36;12.77;;;8.48;;
47762;SDS011;33526;42.690;23.322;2023-07-13T03:57:06;12.60;;;8.30;;
47762;SDS011;33526;42.690;23.322;2023-07-13T03:59:39;18.00;;;9.05;;
47762;SDS011;33526;42.690;23.322;2023-07-13T04:05:10;12.65;;;8.40;;
47762;SDS011;33526;42.690;23.322;2023-07-13T04:08:14;14.07;;;9.13;;
47762;SDS011;33526;42.690;23.322;2023-07-13T04:11:02;15.35;;;8.43;;
47762;SDS011;33526;42.690;23.322;2023-07-13T04:13:37;11.07;;;8.30;;
47762;SDS011;33526;42.690;23.322;2023-07-13T04:17:00;10.95;;;7.78;;
47762;SDS011;33526;42.690;23.322;2023-07-13T04:25:51;14.88;;;8.13;;
47762;SDS011;33526;42.690;23.322;2023-07-13T04:29:23;17.73;;;8.57;;
47762;SDS011;33526;42.690;23.322;2023-07-13T04:45:00;10.90;;;8.15;;
47762;SDS011;33526;42.690;23.322;2023-07-13T04:47:46;14.07;;;8.70;;
47762;SDS011;33526;42.690;23.322;2023-07-13T04:51:03;15.02;;;8.57;;
47762;SDS011;33526;42.690;23.322;2023-07-13T04:56:41;13.27;;;9.15;;
47762;SDS011;33526;42.690;23.322;2023-07-13T04:59:24;14.32;;;9.52;;
47762;SDS011;33526;42.690;23.322;2023-07-13T05:01:54;16.45;;;9.32;;
47762;SDS011;33526;42.690;23.322;2023-07-13T05:04:28;15.63;;;9.05;;
47762;SDS011;33526;42.690;23.322;2023-07-13T05:06:59;14.75;;;8.35;;
47762;SDS011;33526;42.690;23.322;2023-07-13T05:12:26;15.52;;;10.30;;
47762;SDS011;33526;42.690;23.322;2023-07-13T05:14:58;20.23;;;10.40;;
47762;SDS011;33526;42.690;23.322;2023-07-13T05:17:30;20.15;;;11.32;;
47762;SDS011;33526;42.690;23.322;2023-07-13T05:20:10;18.90;;;10.27;;
47762;SDS011;33526;42.690;23.322;2023-07-13T05:22:41;17.55;;;10.25;;
47762;SDS011;33526;42.690;23.322;2023-07-13T05:25:12;27.83;;;11.10;;
47762;SDS011;33526;42.690;23.322;2023-07-13T05:30:50;24.15;;;9.75;;
47762;SDS011;33526;42.690;23.322;2023-07-13T05:33:39;19.63;;;9.93;;
47762;SDS011;33526;42.690;23.322;2023-07-13T05:36:19;15.30;;;10.40;;
47762;SDS011;33526;42.690;23.322;2023-07-13T05:38:48;21.60;;;10.90;;
47762;SDS011;33526;42.690;23.322;2023-07-13T05:41:22;19.65;;;11.18;;
47762;SDS011;33526;42.690;23.322;2023-07-13T05:44:09;18.05;;;11.27;;
47762;SDS011;33526;42.690;23.322;2023-07-13T05:47:04;22.63;;;12.38;;
47762;SDS011;33526;42.690;23.322;2023-07-13T05:49:41;22.42;;;12.27;;
47762;SDS011;33526;42.690;23.322;2023-07-13T05:54:48;23.45;;;11.63;;
47762;SDS011;33526;42.690;23.322;2023-07-13T05:57:16;20.95;;;11.98;;
47762;SDS011;33526;42.690;23.322;2023-07-13T05:59:44;15.88;;;11.68;;
47762;SDS011;33526;42.690;23.322;2023-07-13T06:02:39;19.60;;;11.10;;
47762;SDS011;33526;42.690;23.322;2023-07-13T06:05:15;21.42;;;10.07;;
47762;SDS011;33526;42.690;23.322;2023-07-13T06:07:41;23.17;;;10.27;;
47762;SDS011;33526;42.690;23.322;2023-07-13T06:10:07;17.73;;;9.93;;
47762;SDS011;33526;42.690;23.322;2023-07-13T06:12:46;16.75;;;9.63;;
47762;SDS011;33526;42.690;23.322;2023-07-13T06:15:23;20.08;;;10.07;;
47762;SDS011;33526;42.690;23.322;2023-07-13T06:17:49;18.40;;;10.23;;
47762;SDS011;33526;42.690;23.322;2023-07-13T06:20:29;18.13;;;9.75;;
47762;SDS011;33526;42.690;23.322;2023-07-13T06:23:09;16.73;;;10.55;;
47762;SDS011;33526;42.690;23.322;2023-07-13T06:25:38;16.70;;;8.70;;
47762;SDS011;33526;42.690;23.322;2023-07-13T06:28:06;13.63;;;8.85;;
47762;SDS011;33526;42.690;23.322;2023-07-13T06:30:42;13.90;;;9.02;;
47762;SDS011;33526;42.690;23.322;2023-07-13T06:33:13;17.05;;;8.05;;
47762;SDS011;33526;42.690;23.322;2023-07-13T06:35:42;14.65;;;8.68;;
47762;SDS011;33526;42.690;23.322;2023-07-13T06:38:16;17.60;;;9.27;;
47762;SDS011;33526;42.690;23.322;2023-07-13T06:41:01;21.67;;;9.35;;
47762;SDS011;33526;42.690;23.322;2023-07-13T06:46:12;13.82;;;7.85;;
47762;SDS011;33526;42.690;23.322;2023-07-13T06:48:51;13.27;;;8.90;;
47762;SDS011;33526;42.690;23.322;2023-07-13T06:51:21;15.52;;;7.85;;
47762;SDS011;33526;42.690;23.322;2023-07-13T06:53:49;15.95;;;8.18;;
47762;SDS011;33526;42.690;23.322;2023-07-13T06:56:24;18.92;;;8.73;;
47762;SDS011;33526;42.690;23.322;2023-07-13T06:58:55;12.75;;;7.93;;
47762;SDS011;33526;42.690;23.322;2023-07-13T07:01:27;12.90;;;9.25;;
47762;SDS011;33526;42.690;23.322;2023-07-13T07:03:57;24.02;;;11.10;;
47762;SDS011;33526;42.690;23.322;2023-07-13T07:06:47;18.83;;;12.23;;
47762;SDS011;33526;42.690;23.322;2023-07-13T07:09:14;20.52;;;10.55;;
47762;SDS011;33526;42.690;23.322;2023-07-13T07:11:42;25.83;;;10.07;;
47762;SDS011;33526;42.690;23.322;2023-07-13T07:14:16;16.05;;;10.32;;
47762;SDS011;33526;42.690;23.322;2023-07-13T07:19:57;15.90;;;10.15;;
47762;SDS011;33526;42.690;23.322;2023-07-13T07:25:31;16.38;;;9.60;;
47762;SDS011;33526;42.690;23.322;2023-07-13T07:28:02;15.23;;;10.18;;
47762;SDS011;33526;42.690;23.322;2023-07-13T07:30:32;24.55;;;11.15;;
47762;SDS011;33526;42.690;23.322;2023-07-13T07:33:13;12.30;;;9.30;;
47762;SDS011;33526;42.690;23.322;2023-07-13T07:35:42;16.13;;;9.98;;
47762;SDS011;33526;42.690;23.322;2023-07-13T07:38:30;15.88;;;10.15;;
47762;SDS011;33526;42.690;23.322;2023-07-13T07:41:04;14.13;;;9.10;;
47762;SDS011;33526;42.690;23.322;2023-07-13T07:43:52;16.38;;;8.90;;
47762;SDS011;33526;42.690;23.322;2023-07-13T07:46:40;16.67;;;8.90;;
47762;SDS011;33526;42.690;23.322;2023-07-13T07:49:37;21.75;;;8.43;;
47762;SDS011;33526;42.690;23.322;2023-07-13T07:52:05;16.75;;;8.23;;
47762;SDS011;33526;42.690;23.322;2023-07-13T07:54:52;16.17;;;7.75;;
47762;SDS011;33526;42.690;23.322;2023-07-13T07:57:26;17.92;;;7.90;;
47762;SDS011;33526;42.690;23.322;2023-07-13T07:59:56;16.52;;;9.45;;
47762;SDS011;33526;42.690;23.322;2023-07-13T08:02:45;17.75;;;7.88;;
47762;SDS011;33526;42.690;23.322;2023-07-13T08:06:02;16.73;;;8.63;;
47762;SDS011;33526;42.690;23.322;2023-07-13T08:08:57;14.68;;;7.28;;
47762;SDS011;33526;42.690;23.322;2023-07-13T08:11:41;14.25;;;8.20;;
47762;SDS011;33526;42.690;23.322;2023-07-13T08:14:24;17.33;;;7.85;;
47762;SDS011;33526;42.690;23.322;2023-07-13T08:17:04;15.30;;;8.30;;
47762;SDS011;33526;42.690;23.322;2023-07-13T08:19:42;14.73;;;8.00;;
47762;SDS011;33526;42.690;23.322;2023-07-13T08:22:18;13.27;;;7.68;;
47762;SDS011;33526;42.690;23.322;2023-07-13T08:24:53;13.60;;;7.45;;
47762;SDS011;33526;42.690;23.322;2023-07-13T08:30:30;18.02;;;6.85;;
47762;SDS011;33526;42.690;23.322;2023-07-13T08:33:04;17.38;;;8.10;;
47762;SDS011;33526;42.690;23.322;2023-07-13T08:35:33;18.13;;;8.60;;
47762;SDS011;33526;42.690;23.322;2023-07-13T08:37:59;14.07;;;7.50;;
47762;SDS011;33526;42.690;23.322;2023-07-13T08:40:54;15.23;;;8.60;;
47762;SDS011;33526;42.690;23.322;2023-07-13T08:43:34;26.52;;;19.13;;
47762;SDS011;33526;42.690;23.322;2023-07-13T08:46:45;23.15;;;7.90;;
47762;SDS011;33526;42.690;23.322;2023-07-13T08:49:22;13.95;;;7.90;;
47762;SDS011;33526;42.690;23.322;2023-07-13T08:52:05;15.93;;;8.18;;
47762;SDS011;33526;42.690;23.322;2023-07-13T08:55:06;17.85;;;8.20;;
47762;SDS011;33526;42.690;23.322;2023-07-13T08:58:15;13.23;;;7.97;;
47762;SDS011;33526;42.690;23.322;2023-07-13T09:04:37;21.10;;;8.48;;
47762;SDS011;33526;42.690;23.322;2023-07-13T09:10:39;15.47;;;8.77;;
47762;SDS011;33526;42.690;23.322;2023-07-13T09:16:17;13.75;;;8.38;;
47762;SDS011;33526;42.690;23.322;2023-07-13T09:19:02;20.10;;;9.48;;
47762;SDS011;33526;42.690;23.322;2023-07-13T09:27:34;20.65;;;9.43;;
47762;SDS011;33526;42.690;23.322;2023-07-13T09:30:23;14.82;;;8.18;;
47762;SDS011;33526;42.690;23.322;2023-07-13T09:33:09;19.55;;;8.80;;
47762;SDS011;33526;42.690;23.322;2023-07-13T09:36:32;18.85;;;9.52;;
47762;SDS011;33526;42.690;23.322;2023-07-13T09:39:24;18.27;;;8.43;;
47762;SDS011;33526;42.690;23.322;2023-07-13T09:42:29;17.83;;;8.82;;
47762;SDS011;33526;42.690;23.322;2023-07-13T09:45:01;18.35;;;8.65;;
47762;SDS011;33526;42.690;23.322;2023-07-13T09:48:03;14.15;;;8.18;;
47762;SDS011;33526;42.690;23.322;2023-07-13T09:51:17;16.25;;;8.55;;
47762;SDS011;33526;42.690;23.322;2023-07-13T09:53:45;14.88;;;7.45;;
47762;SDS011;33526;42.690;23.322;2023-07-13T09:56:19;17.52;;;8.20;;
47762;SDS011;33526;42.690;23.322;2023-07-13T09:58:52;20.35;;;10.55;;
47762;SDS011;33526;42.690;23.322;2023-07-13T10:01:32;19.52;;;10.68;;
47762;SDS011;33526;42.690;23.322;2023-07-13T10:04:14;15.32;;;8.40;;
47762;SDS011;33526;42.690;23.322;2023-07-13T10:07:05;12.40;;;7.75;;
47762;SDS011;33526;42.690;23.322;2023-07-13T10:09:35;19.88;;;8.25;;
47762;SDS011;33526;42.690;23.322;2023-07-13T10:12:16;16.38;;;8.55;;
47762;SDS011;33526;42.690;23.322;2023-07-13T10:14:56;16.65;;;6.68;;
47762;SDS011;33526;42.690;23.322;2023-07-13T10:17:38;13.88;;;6.80;;
47762;SDS011;33526;42.690;23.322;2023-07-13T10:21:08;11.88;;;6.45;;
47762;SDS011;33526;42.690;23.322;2023-07-13T10:23:39;12.57;;;6.65;;
47762;SDS011;33526;42.690;23.322;2023-07-13T10:28:36;14.48;;;6.95;;
47762;SDS011;33526;42.690;23.322;2023-07-13T10:31:13;19.17;;;7.95;;
47762;SDS011;33526;42.690;23.322;2023-07-13T10:33:42;7.53;;;4.95;;
47762;SDS011;33526;42.690;23.322;2023-07-13T10:36:40;17.08;;;5.68;;
47762;SDS011;33526;42.690;23.322;2023-07-13T10:39:35;7.65;;;4.88;;
47762;SDS011;33526;42.690;23.322;2023-07-13T10:42:26;8.18;;;4.38;;
47762;SDS011;33526;42.690;23.322;2023-07-13T10:44:56;12.38;;;7.78;;
47762;SDS011;33526;42.690;23.322;2023-07-13T10:47:26;9.63;;;5.03;;
47762;SDS011;33526;42.690;23.322;2023-07-13T10:49:56;9.48;;;4.60;;
47762;SDS011;33526;42.690;23.322;2023-07-13T10:55:40;10.25;;;5.10;;
47762;SDS011;33526;42.690;23.322;2023-07-13T10:58:22;11.20;;;6.85;;
47762;SDS011;33526;42.690;23.322;2023-07-13T11:03:34;12.13;;;4.90;;
47762;SDS011;33526;42.690;23.322;2023-07-13T11:08:54;12.10;;;4.65;;
47762;SDS011;33526;42.690;23.322;2023-07-13T11:11:34;11.00;;;5.28;;
47762;SDS011;33526;42.690;23.322;2023-07-13T11:17:50;11.40;;;4.80;;
47762;SDS011;33526;42.690;23.322;2023-07-13T11:20:38;8.40;;;4.55;;
47762;SDS011;33526;42.690;23.322;2023-07-13T11:23:31;9.18;;;4.88;;
47762;SDS011;33526;42.690;23.322;2023-07-13T11:25:58;9.05;;;5.00;;
47762;SDS011;33526;42.690;23.322;2023-07-13T11:28:32;16.75;;;5.22;;
47762;SDS011;33526;42.690;23.322;2023-07-13T11:31:20;8.00;;;5.25;;
47762;SDS011;33526;42.690;23.322;2023-07-13T11:33:51;12.15;;;5.95;;
47762;SDS011;33526;42.690;23.322;2023-07-13T11:36:21;11.85;;;5.13;;
47762;SDS011;33526;42.690;23.322;2023-07-13T11:39:03;9.07;;;4.78;;
47762;SDS011;33526;42.690;23.322;2023-07-13T11:41:56;9.15;;;5.55;;
47762;SDS011;33526;42.690;23.322;2023-07-13T11:44:25;12.75;;;5.00;;
47762;SDS011;33526;42.690;23.322;2023-07-13T11:46:57;12.82;;;5.68;;
47762;SDS011;33526;42.690;23.322;2023-07-13T11:49:41;14.13;;;5.25;;
47762;SDS011;33526;42.690;23.322;2023-07-13T11:52:14;12.45;;;5.38;;
47762;SDS011;33526;42.690;23.322;2023-07-13T11:54:55;11.20;;;5.25;;
47762;SDS011;33526;42.690;23.322;2023-07-13T11:57:33;13.48;;;5.55;;
47762;SDS011;33526;42.690;23.322;2023-07-13T12:00:13;11.43;;;5.18;;
47762;SDS011;33526;42.690;23.322;2023-07-13T12:02:47;8.35;;;4.97;;
47762;SDS011;33526;42.690;23.322;2023-07-13T12:05:17;18.38;;;5.82;;
47762;SDS011;33526;42.690;23.322;2023-07-13T12:07:50;7.50;;;4.80;;
47762;SDS011;33526;42.690;23.322;2023-07-13T12:10:30;9.50;;;4.95;;
47762;SDS011;33526;42.690;23.322;2023-07-13T12:13:02;16.60;;;6.15;;
47762;SDS011;33526;42.690;23.322;2023-07-13T12:15:40;13.95;;;5.40;;
47762;SDS011;33526;42.690;23.322;2023-07-13T12:18:30;12.15;;;4.63;;
47762;SDS011;33526;42.690;23.322;2023-07-13T12:20:59;10.05;;;5.05;;
47762;SDS011;33526;42.690;23.322;2023-07-13T12:23:31;20.65;;;5.45;;
47762;SDS011;33526;42.690;23.322;2023-07-13T12:28:54;12.60;;;5.25;;
47762;SDS011;33526;42.690;23.322;2023-07-13T12:31:23;10.38;;;4.72;;
47762;SDS011;33526;42.690;23.322;2023-07-13T12:33:59;10.73;;;5.60;;
47762;SDS011;33526;42.690;23.322;2023-07-13T12:36:35;11.10;;;4.57;;
47762;SDS011;33526;42.690;23.322;2023-07-13T12:39:45;11.90;;;4.60;;
47762;SDS011;33526;42.690;23.322;2023-07-13T12:42:27;14.82;;;5.05;;
47762;SDS011;33526;42.690;23.322;2023-07-13T12:45:34;8.45;;;5.60;;
47762;SDS011;33526;42.690;23.322;2023-07-13T12:50:56;9.77;;;4.93;;
47762;SDS011;33526;42.690;23.322;2023-07-13T12:53:28;9.85;;;4.60;;
47762;SDS011;33526;42.690;23.322;2023-07-13T12:56:01;14.98;;;5.50;;
47762;SDS011;33526;42.690;23.322;2023-07-13T12:58:29;12.25;;;4.95;;
47762;SDS011;33526;42.690;23.322;2023-07-13T13:01:05;12.63;;;5.10;;
47762;SDS011;33526;42.690;23.322;2023-07-13T13:03:35;12.38;;;5.35;;
47762;SDS011;33526;42.690;23.322;2023-07-13T13:08:49;16.92;;;5.05;;
47762;SDS011;33526;42.690;23.322;2023-07-13T13:11:18;21.67;;;6.05;;
47762;SDS011;33526;42.690;23.322;2023-07-13T13:13:59;15.95;;;5.30;;
47762;SDS011;33526;42.690;23.322;2023-07-13T13:16:48;11.57;;;4.85;;
47762;SDS011;33526;42.690;23.322;2023-07-13T13:19:27;13.07;;;4.72;;
47762;SDS011;33526;42.690;23.322;2023-07-13T13:21:54;9.80;;;4.55;;
47762;SDS011;33526;42.690;23.322;2023-07-13T13:24:23;16.88;;;6.30;;
47762;SDS011;33526;42.690;23.322;2023-07-13T13:26:52;13.93;;;5.05;;
47762;SDS011;33526;42.690;23.322;2023-07-13T13:29:26;10.40;;;5.22;;
47762;SDS011;33526;42.690;23.322;2023-07-13T13:31:56;9.60;;;4.15;;
47762;SDS011;33526;42.690;23.322;2023-07-13T13:34:23;9.95;;;5.13;;
47762;SDS011;33526;42.690;23.322;2023-07-13T13:36:55;10.75;;;4.22;;
47762;SDS011;33526;42.690;23.322;2023-07-13T13:39:31;9.40;;;4.43;;
47762;SDS011;33526;42.690;23.322;2023-07-13T13:42:02;10.40;;;4.82;;
47762;SDS011;33526;42.690;23.322;2023-07-13T13:44:31;13.48;;;5.10;;
47762;SDS011;33526;42.690;23.322;2023-07-13T13:46:56;15.83;;;5.07;;
47762;SDS011;33526;42.690;23.322;2023-07-13T13:49:29;14.80;;;4.55;;
47762;SDS011;33526;42.690;23.322;2023-07-13T13:51:56;14.57;;;4.57;;
47762;SDS011;33526;42.690;23.322;2023-07-13T13:54:23;11.10;;;4.50;;
47762;SDS011;33526;42.690;23.322;2023-07-13T13:56:56;14.38;;;4.72;;
47762;SDS011;33526;42.690;23.322;2023-07-13T13:59:33;9.25;;;4.63;;
47762;SDS011;33526;42.690;23.322;2023-07-13T14:02:27;7.20;;;4.35;;
47762;SDS011;33526;42.690;23.322;2023-07-13T14:04:56;14.13;;;4.95;;
47762;SDS011;33526;42.690;23.322;2023-07-13T14:07:38;14.80;;;5.00;;
47762;SDS011;33526;42.690;23.322;2023-07-13T14:10:17;10.18;;;4.35;;
47762;SDS011;33526;42.690;23.322;2023-07-13T14:13:04;10.13;;;4.17;;
47762;SDS011;33526;42.690;23.322;2023-07-13T14:15:31;12.70;;;5.68;;
47762;SDS011;33526;42.690;23.322;2023-07-13T14:17:59;12.77;;;4.90;;
47762;SDS011;33526;42.690;23.322;2023-07-13T14:20:26;16.95;;;5.93;;
47762;SDS011;33526;42.690;23.322;2023-07-13T14:22:54;13.35;;;4.97;;
47762;SDS011;33526;42.690;23.322;2023-07-13T14:25:27;12.57;;;4.60;;
47762;SDS011;33526;42.690;23.322;2023-07-13T14:28:21;9.68;;;5.07;;
47762;SDS011;33526;42.690;23.322;2023-07-13T14:30:55;11.65;;;4.95;;
47762;SDS011;33526;42.690;23.322;2023-07-13T14:33:20;12.40;;;4.93;;
47762;SDS011;33526;42.690;23.322;2023-07-13T14:35:46;10.57;;;4.60;;
47762;SDS011;33526;42.690;23.322;2023-07-13T14:38:15;9.48;;;4.47;;
47762;SDS011;33526;42.690;23.322;2023-07-13T14:40:47;12.48;;;4.60;;
47762;SDS011;33526;42.690;23.322;2023-07-13T14:43:15;11.57;;;6.18;;
47762;SDS011;33526;42.690;23.322;2023-07-13T14:46:00;14.73;;;5.80;;
47762;SDS011;33526;42.690;23.322;2023-07-13T14:48:32;22.60;;;8.68;;
47762;SDS011;33526;42.690;23.322;2023-07-13T14:50:59;16.40;;;9.50;;
47762;SDS011;33526;42.690;23.322;2023-07-13T14:53:37;15.55;;;7.70;;
47762;SDS011;33526;42.690;23.322;2023-07-13T14:56:13;10.80;;;5.13;;
47762;SDS011;33526;42.690;23.322;2023-07-13T14:58:41;10.10;;;5.38;;
47762;SDS011;33526;42.690;23.322;2023-07-13T15:01:10;12.07;;;5.20;;
47762;SDS011;33526;42.690;23.322;2023-07-13T15:03:43;14.52;;;6.45;;
47762;SDS011;33526;42.690;23.322;2023-07-13T15:06:19;10.60;;;5.05;;
47762;SDS011;33526;42.690;23.322;2023-07-13T15:08:56;14.68;;;5.68;;
47762;SDS011;33526;42.690;23.322;2023-07-13T15:11:22;8.32;;;5.13;;
47762;SDS011;33526;42.690;23.322;2023-07-13T15:13:56;10.45;;;4.88;;
47762;SDS011;33526;42.690;23.322;2023-07-13T15:16:24;11.93;;;5.40;;
47762;SDS011;33526;42.690;23.322;2023-07-13T15:18:54;13.25;;;5.38;;
47762;SDS011;33526;42.690;23.322;2023-07-13T15:21:38;11.30;;;5.18;;
47762;SDS011;33526;42.690;23.322;2023-07-13T15:24:11;12.60;;;5.40;;
47762;SDS011;33526;42.690;23.322;2023-07-13T15:27:12;17.80;;;4.80;;
47762;SDS011;33526;42.690;23.322;2023-07-13T15:29:39;10.48;;;4.90;;
47762;SDS011;33526;42.690;23.322;2023-07-13T15:32:17;11.57;;;4.82;;
47762;SDS011;33526;42.690;23.322;2023-07-13T15:34:49;10.80;;;4.90;;
47762;SDS011;33526;42.690;23.322;2023-07-13T15:37:17;10.48;;;4.60;;
47762;SDS011;33526;42.690;23.322;2023-07-13T15:39:53;10.47;;;4.77;;
47762;SDS011;33526;42.690;23.322;2023-07-13T15:42:19;15.85;;;4.43;;
47762;SDS011;33526;42.690;23.322;2023-07-13T15:44:49;11.07;;;4.30;;
47762;SDS011;33526;42.690;23.322;2023-07-13T15:47:15;12.20;;;4.53;;
47762;SDS011;33526;42.690;23.322;2023-07-13T15:50:08;7.05;;;4.68;;
47762;SDS011;33526;42.690;23.322;2023-07-13T15:52:58;18.58;;;5.40;;
47762;SDS011;33526;42.690;23.322;2023-07-13T15:55:24;11.68;;;4.70;;
47762;SDS011;33526;42.690;23.322;2023-07-13T16:00:40;9.50;;;5.40;;
47762;SDS011;33526;42.690;23.322;2023-07-13T16:03:11;11.35;;;5.05;;
47762;SDS011;33526;42.690;23.322;2023-07-13T16:05:45;9.77;;;4.35;;
47762;SDS011;33526;42.690;23.322;2023-07-13T16:08:29;7.18;;;5.00;;
47762;SDS011;33526;42.690;23.322;2023-07-13T16:11:01;7.05;;;4.50;;
47762;SDS011;33526;42.690;23.322;2023-07-13T16:13:37;11.90;;;4.80;;
47762;SDS011;33526;42.690;23.322;2023-07-13T16:16:09;13.00;;;5.50;;
47762;SDS011;33526;42.690;23.322;2023-07-13T16:18:45;13.38;;;5.55;;
47762;SDS011;33526;42.690;23.322;2023-07-13T16:21:12;14.82;;;6.07;;
47762;SDS011;33526;42.690;23.322;2023-07-13T16:23:43;12.88;;;6.10;;
47762;SDS011;33526;42.690;23.322;2023-07-13T16:26:27;13.60;;;5.57;;
47762;SDS011;33526;42.690;23.322;2023-07-13T16:29:18;11.95;;;5.85;;
47762;SDS011;33526;42.690;23.322;2023-07-13T16:32:03;22.40;;;7.07;;
47762;SDS011;33526;42.690;23.322;2023-07-13T16:34:37;14.82;;;5.40;;
47762;SDS011;33526;42.690;23.322;2023-07-13T16:37:18;15.93;;;6.03;;
47762;SDS011;33526;42.690;23.322;2023-07-13T16:39:51;11.88;;;5.57;;
47762;SDS011;33526;42.690;23.322;2023-07-13T16:42:18;16.00;;;7.93;;
47762;SDS011;33526;42.690;23.322;2023-07-13T16:44:49;16.13;;;6.88;;
47762;SDS011;33526;42.690;23.322;2023-07-13T16:47:21;18.48;;;5.70;;
47762;SDS011;33526;42.690;23.322;2023-07-13T16:49:50;12.60;;;7.13;;
47762;SDS011;33526;42.690;23.322;2023-07-13T16:52:19;14.88;;;8.82;;
47762;SDS011;33526;42.690;23.322;2023-07-13T16:54:48;8.43;;;6.22;;
47762;SDS011;33526;42.690;23.322;2023-07-13T16:57:19;11.23;;;6.10;;
47762;SDS011;33526;42.690;23.322;2023-07-13T17:00:01;13.82;;;5.50;;
47762;SDS011;33526;42.690;23.322;2023-07-13T17:02:43;14.45;;;6.40;;
47762;SDS011;33526;42.690;23.322;2023-07-13T17:05:13;13.63;;;6.28;;
47762;SDS011;33526;42.690;23.322;2023-07-13T17:07:42;13.48;;;6.15;;
47762;SDS011;33526;42.690;23.322;2023-07-13T17:10:19;14.95;;;6.07;;
47762;SDS011;33526;42.690;23.322;2023-07-13T17:12:54;22.10;;;6.65;;
47762;SDS011;33526;42.690;23.322;2023-07-13T17:15:24;16.33;;;6.55;;
47762;SDS011;33526;42.690;23.322;2023-07-13T17:18:04;12.93;;;7.28;;
47762;SDS011;33526;42.690;23.322;2023-07-13T17:21:37;13.20;;;6.82;;
47762;SDS011;33526;42.690;23.322;2023-07-13T17:24:27;18.88;;;7.38;;
47762;SDS011;33526;42.690;23.322;2023-07-13T17:27:05;17.00;;;6.60;;
47762;SDS011;33526;42.690;23.322;2023-07-13T17:29:36;19.55;;;6.05;;
47762;SDS011;33526;42.690;23.322;2023-07-13T17:32:44;14.13;;;5.88;;
47762;SDS011;33526;42.690;23.322;2023-07-13T17:35:44;17.23;;;5.45;;
47762;SDS011;33526;42.690;23.322;2023-07-13T17:38:18;21.98;;;8.45;;
47762;SDS011;33526;42.690;23.322;2023-07-13T17:41:44;15.35;;;6.22;;
47762;SDS011;33526;42.690;23.322;2023-07-13T17:47:16;20.50;;;9.27;;
47762;SDS011;33526;42.690;23.322;2023-07-13T17:52:59;16.15;;;6.88;;